sensor_id;sensor_type;location;lat;lon;timestamp;P1;durP1;ratioP1;P2;durP2;ratioP2
21999;SDS011;11164;48.818;2.322;2022-11-30T00:00:35;26.17;;;13.18;;
21999;SDS011;11164;48.818;2.322;2022-11-30T00:03:01;26.77;;;14.18;;
21999;SDS011;11164;48.818;2.322;2022-11-30T00:05:27;26.88;;;13.73;;
21999;SDS011;11164;48.818;2.322;2022-11-30T00:07:52;24.77;;;13.40;;
21999;SDS011;11164;48.818;2.322;2022-11-30T00:10:20;30.05;;;14.23;;
21999;SDS011;11164;48.818;2.322;2022-11-30T00:12:47;24.95;;;13.70;;
21999;SDS011;11164;48.818;2.322;2022-11-30T00:15:13;26.05;;;13.07;;
21999;SDS011;11164;48.818;2.322;2022-11-30T00:17:41;33.10;;;14.20;;
21999;SDS011;11164;48.818;2.322;2022-11-30T00:20:07;26.85;;;13.60;;
21999;SDS011;11164;48.818;2.322;2022-11-30T00:22:33;27.15;;;13.55;;
21999;SDS011;11164;48.818;2.322;2022-11-30T00:24:58;28.23;;;13.40;;
21999;SDS011;11164;48.818;2.322;2022-11-30T00:27:24;28.17;;;13.50;;
21999;SDS011;11164;48.818;2.322;2022-11-30T00:29:51;27.27;;;13.60;;
21999;SDS011;11164;48.818;2.322;2022-11-30T00:32:16;26.33;;;13.48;;
21999;SDS011;11164;48.818;2.322;2022-11-30T00:34:42;28.35;;;14.30;;
21999;SDS011;11164;48.818;2.322;2022-11-30T00:37:07;24.20;;;13.18;;
21999;SDS011;11164;48.818;2.322;2022-11-30T00:39:32;27.63;;;13.50;;
21999;SDS011;11164;48.818;2.322;2022-11-30T00:41:58;26.90;;;13.23;;
21999;SDS011;11164;48.818;2.322;2022-11-30T00:44:23;27.00;;;13.23;;
21999;SDS011;11164;48.818;2.322;2022-11-30T00:46:48;23.95;;;12.68;;
21999;SDS011;11164;48.818;2.322;2022-11-30T00:49:14;24.52;;;13.38;;
21999;SDS011;11164;48.818;2.322;2022-11-30T00:51:39;22.63;;;12.00;;
21999;SDS011;11164;48.818;2.322;2022-11-30T00:54:04;25.17;;;13.05;;
21999;SDS011;11164;48.818;2.322;2022-11-30T00:56:30;26.73;;;13.13;;
21999;SDS011;11164;48.818;2.322;2022-11-30T00:58:55;21.90;;;12.32;;
21999;SDS011;11164;48.818;2.322;2022-11-30T01:01:20;23.95;;;12.77;;
21999;SDS011;11164;48.818;2.322;2022-11-30T01:03:46;22.98;;;12.38;;
21999;SDS011;11164;48.818;2.322;2022-11-30T01:06:11;21.65;;;11.40;;
21999;SDS011;11164;48.818;2.322;2022-11-30T01:08:37;24.85;;;13.40;;
21999;SDS011;11164;48.818;2.322;2022-11-30T01:11:06;25.33;;;13.05;;
21999;SDS011;11164;48.818;2.322;2022-11-30T01:13:36;25.13;;;13.63;;
21999;SDS011;11164;48.818;2.322;2022-11-30T01:16:06;26.08;;;13.07;;
21999;SDS011;11164;48.818;2.322;2022-11-30T01:18:34;24.92;;;13.23;;
21999;SDS011;11164;48.818;2.322;2022-11-30T01:21:03;22.35;;;12.45;;
21999;SDS011;11164;48.818;2.322;2022-11-30T01:23:30;26.63;;;13.43;;
21999;SDS011;11164;48.818;2.322;2022-11-30T01:25:55;24.45;;;13.40;;
21999;SDS011;11164;48.818;2.322;2022-11-30T01:28:20;23.15;;;12.50;;
21999;SDS011;11164;48.818;2.322;2022-11-30T01:30:54;23.65;;;13.30;;
21999;SDS011;11164;48.818;2.322;2022-11-30T01:33:23;26.77;;;13.95;;
21999;SDS011;11164;48.818;2.322;2022-11-30T01:35:56;25.80;;;13.88;;
21999;SDS011;11164;48.818;2.322;2022-11-30T01:38:23;24.60;;;13.65;;
21999;SDS011;11164;48.818;2.322;2022-11-30T01:40:49;24.77;;;13.15;;
21999;SDS011;11164;48.818;2.322;2022-11-30T01:43:15;22.20;;;13.18;;
21999;SDS011;11164;48.818;2.322;2022-11-30T01:45:41;23.90;;;13.10;;
21999;SDS011;11164;48.818;2.322;2022-11-30T01:48:06;23.23;;;13.02;;
21999;SDS011;11164;48.818;2.322;2022-11-30T01:50:33;24.13;;;12.85;;
21999;SDS011;11164;48.818;2.322;2022-11-30T01:52:59;21.90;;;11.85;;
21999;SDS011;11164;48.818;2.322;2022-11-30T01:55:28;22.73;;;12.50;;
21999;SDS011;11164;48.818;2.322;2022-11-30T01:58:15;22.75;;;12.52;;
21999;SDS011;11164;48.818;2.322;2022-11-30T02:00:48;25.63;;;12.52;;
21999;SDS011;11164;48.818;2.322;2022-11-30T02:03:15;21.23;;;12.02;;
21999;SDS011;11164;48.818;2.322;2022-11-30T02:05:46;23.63;;;12.60;;
21999;SDS011;11164;48.818;2.322;2022-11-30T02:08:13;22.58;;;13.32;;
21999;SDS011;11164;48.818;2.322;2022-11-30T02:10:39;22.38;;;12.15;;
21999;SDS011;11164;48.818;2.322;2022-11-30T02:15:56;21.00;;;12.93;;
21999;SDS011;11164;48.818;2.322;2022-11-30T02:18:31;23.23;;;13.02;;
21999;SDS011;11164;48.818;2.322;2022-11-30T02:21:23;22.63;;;12.82;;
21999;SDS011;11164;48.818;2.322;2022-11-30T02:29:13;18.13;;;10.30;;
21999;SDS011;11164;48.818;2.322;2022-11-30T02:31:48;16.80;;;9.73;;
21999;SDS011;11164;48.818;2.322;2022-11-30T02:34:20;16.00;;;9.43;;
21999;SDS011;11164;48.818;2.322;2022-11-30T02:36:49;15.70;;;9.07;;
21999;SDS011;11164;48.818;2.322;2022-11-30T02:39:15;16.73;;;9.13;;
21999;SDS011;11164;48.818;2.322;2022-11-30T02:41:45;17.30;;;8.25;;
21999;SDS011;11164;48.818;2.322;2022-11-30T02:44:10;14.65;;;8.32;;
21999;SDS011;11164;48.818;2.322;2022-11-30T02:46:49;15.75;;;9.43;;
21999;SDS011;11164;48.818;2.322;2022-11-30T02:52:09;13.98;;;7.85;;
21999;SDS011;11164;48.818;2.322;2022-11-30T02:54:37;15.32;;;8.68;;
21999;SDS011;11164;48.818;2.322;2022-11-30T02:57:02;13.88;;;8.15;;
21999;SDS011;11164;48.818;2.322;2022-11-30T02:59:28;14.32;;;7.85;;
21999;SDS011;11164;48.818;2.322;2022-11-30T03:01:53;15.95;;;8.48;;
21999;SDS011;11164;48.818;2.322;2022-11-30T03:04:19;18.52;;;9.30;;
21999;SDS011;11164;48.818;2.322;2022-11-30T03:06:44;16.52;;;8.80;;
21999;SDS011;11164;48.818;2.322;2022-11-30T03:09:10;15.65;;;8.55;;
21999;SDS011;11164;48.818;2.322;2022-11-30T03:11:35;14.23;;;8.35;;
21999;SDS011;11164;48.818;2.322;2022-11-30T03:14:01;16.85;;;8.38;;
21999;SDS011;11164;48.818;2.322;2022-11-30T03:16:26;14.90;;;8.43;;
21999;SDS011;11164;48.818;2.322;2022-11-30T03:18:52;13.65;;;8.25;;
21999;SDS011;11164;48.818;2.322;2022-11-30T03:21:17;17.40;;;9.18;;
21999;SDS011;11164;48.818;2.322;2022-11-30T03:23:43;14.55;;;7.65;;
21999;SDS011;11164;48.818;2.322;2022-11-30T03:26:08;14.70;;;8.18;;
21999;SDS011;11164;48.818;2.322;2022-11-30T03:28:34;15.07;;;8.77;;
21999;SDS011;11164;48.818;2.322;2022-11-30T03:31:00;14.88;;;8.30;;
21999;SDS011;11164;48.818;2.322;2022-11-30T03:33:26;16.77;;;8.43;;
21999;SDS011;11164;48.818;2.322;2022-11-30T03:36:01;14.15;;;8.15;;
21999;SDS011;11164;48.818;2.322;2022-11-30T03:38:29;12.85;;;8.10;;
21999;SDS011;11164;48.818;2.322;2022-11-30T03:40:58;13.60;;;7.75;;
21999;SDS011;11164;48.818;2.322;2022-11-30T03:43:44;17.08;;;9.02;;
21999;SDS011;11164;48.818;2.322;2022-11-30T03:46:11;12.55;;;7.97;;
21999;SDS011;11164;48.818;2.322;2022-11-30T03:48:37;15.43;;;8.10;;
21999;SDS011;11164;48.818;2.322;2022-11-30T03:51:03;16.13;;;8.68;;
21999;SDS011;11164;48.818;2.322;2022-11-30T03:53:29;11.73;;;8.07;;
21999;SDS011;11164;48.818;2.322;2022-11-30T03:55:59;12.88;;;7.72;;
21999;SDS011;11164;48.818;2.322;2022-11-30T03:58:26;14.60;;;7.88;;
21999;SDS011;11164;48.818;2.322;2022-11-30T04:00:59;13.40;;;7.80;;
21999;SDS011;11164;48.818;2.322;2022-11-30T04:03:25;13.87;;;8.47;;
21999;SDS011;11164;48.818;2.322;2022-11-30T04:05:51;15.20;;;8.77;;
21999;SDS011;11164;48.818;2.322;2022-11-30T04:08:16;13.80;;;8.10;;
21999;SDS011;11164;48.818;2.322;2022-11-30T04:10:44;12.27;;;7.35;;
21999;SDS011;11164;48.818;2.322;2022-11-30T04:13:11;11.02;;;6.82;;
21999;SDS011;11164;48.818;2.322;2022-11-30T04:15:36;11.40;;;7.28;;
21999;SDS011;11164;48.818;2.322;2022-11-30T04:18:01;11.35;;;6.80;;
21999;SDS011;11164;48.818;2.322;2022-11-30T04:20:27;9.30;;;5.75;;
21999;SDS011;11164;48.818;2.322;2022-11-30T04:22:52;14.00;;;6.68;;
21999;SDS011;11164;48.818;2.322;2022-11-30T04:25:17;10.85;;;6.43;;
21999;SDS011;11164;48.818;2.322;2022-11-30T04:27:46;11.60;;;6.85;;
21999;SDS011;11164;48.818;2.322;2022-11-30T04:30:11;9.40;;;5.80;;
21999;SDS011;11164;48.818;2.322;2022-11-30T04:32:37;11.13;;;5.90;;
21999;SDS011;11164;48.818;2.322;2022-11-30T04:35:03;11.05;;;5.35;;
21999;SDS011;11164;48.818;2.322;2022-11-30T04:37:28;9.82;;;5.85;;
21999;SDS011;11164;48.818;2.322;2022-11-30T04:39:54;8.05;;;4.90;;
21999;SDS011;11164;48.818;2.322;2022-11-30T04:42:19;8.63;;;4.45;;
21999;SDS011;11164;48.818;2.322;2022-11-30T04:44:45;8.45;;;4.72;;
21999;SDS011;11164;48.818;2.322;2022-11-30T04:47:10;7.90;;;4.95;;
21999;SDS011;11164;48.818;2.322;2022-11-30T04:49:35;10.68;;;5.30;;
21999;SDS011;11164;48.818;2.322;2022-11-30T04:52:01;7.72;;;4.90;;
21999;SDS011;11164;48.818;2.322;2022-11-30T04:54:26;6.90;;;4.50;;
21999;SDS011;11164;48.818;2.322;2022-11-30T04:56:51;7.22;;;4.57;;
21999;SDS011;11164;48.818;2.322;2022-11-30T04:59:17;7.47;;;4.80;;
21999;SDS011;11164;48.818;2.322;2022-11-30T05:01:42;9.20;;;5.53;;
21999;SDS011;11164;48.818;2.322;2022-11-30T05:04:07;9.70;;;5.13;;
21999;SDS011;11164;48.818;2.322;2022-11-30T05:06:33;9.35;;;4.95;;
21999;SDS011;11164;48.818;2.322;2022-11-30T05:08:58;9.27;;;5.28;;
21999;SDS011;11164;48.818;2.322;2022-11-30T05:11:23;8.10;;;4.70;;
21999;SDS011;11164;48.818;2.322;2022-11-30T05:13:48;8.70;;;5.47;;
21999;SDS011;11164;48.818;2.322;2022-11-30T05:16:14;9.38;;;5.03;;
21999;SDS011;11164;48.818;2.322;2022-11-30T05:18:39;7.88;;;5.13;;
21999;SDS011;11164;48.818;2.322;2022-11-30T05:21:04;7.95;;;5.32;;
21999;SDS011;11164;48.818;2.322;2022-11-30T05:23:30;8.75;;;5.22;;
21999;SDS011;11164;48.818;2.322;2022-11-30T05:25:56;10.70;;;5.53;;
21999;SDS011;11164;48.818;2.322;2022-11-30T05:28:21;8.20;;;5.20;;
21999;SDS011;11164;48.818;2.322;2022-11-30T05:30:47;8.55;;;5.05;;
21999;SDS011;11164;48.818;2.322;2022-11-30T05:33:13;8.70;;;5.20;;
21999;SDS011;11164;48.818;2.322;2022-11-30T05:35:38;7.63;;;4.80;;
21999;SDS011;11164;48.818;2.322;2022-11-30T05:38:04;9.23;;;5.18;;
21999;SDS011;11164;48.818;2.322;2022-11-30T05:40:29;9.15;;;5.00;;
21999;SDS011;11164;48.818;2.322;2022-11-30T05:42:57;8.25;;;5.10;;
21999;SDS011;11164;48.818;2.322;2022-11-30T05:45:23;9.40;;;5.32;;
21999;SDS011;11164;48.818;2.322;2022-11-30T05:47:49;9.27;;;5.47;;
21999;SDS011;11164;48.818;2.322;2022-11-30T05:50:15;9.20;;;5.22;;
21999;SDS011;11164;48.818;2.322;2022-11-30T05:52:40;9.23;;;5.30;;
21999;SDS011;11164;48.818;2.322;2022-11-30T05:55:06;10.07;;;5.38;;
21999;SDS011;11164;48.818;2.322;2022-11-30T05:57:34;11.27;;;5.57;;
21999;SDS011;11164;48.818;2.322;2022-11-30T06:00:06;10.10;;;5.57;;
21999;SDS011;11164;48.818;2.322;2022-11-30T06:02:33;10.02;;;5.07;;
21999;SDS011;11164;48.818;2.322;2022-11-30T06:04:59;9.40;;;4.88;;
21999;SDS011;11164;48.818;2.322;2022-11-30T06:07:24;11.02;;;5.55;;
21999;SDS011;11164;48.818;2.322;2022-11-30T06:09:49;11.65;;;6.10;;
21999;SDS011;11164;48.818;2.322;2022-11-30T06:12:15;9.45;;;5.15;;
21999;SDS011;11164;48.818;2.322;2022-11-30T06:14:40;10.52;;;5.32;;
21999;SDS011;11164;48.818;2.322;2022-11-30T06:17:06;12.50;;;5.88;;
21999;SDS011;11164;48.818;2.322;2022-11-30T06:19:31;11.82;;;5.70;;
21999;SDS011;11164;48.818;2.322;2022-11-30T06:21:56;10.88;;;4.95;;
21999;SDS011;11164;48.818;2.322;2022-11-30T06:24:22;11.07;;;5.30;;
21999;SDS011;11164;48.818;2.322;2022-11-30T06:26:47;11.55;;;6.38;;
21999;SDS011;11164;48.818;2.322;2022-11-30T06:29:12;11.60;;;5.88;;
21999;SDS011;11164;48.818;2.322;2022-11-30T06:31:38;11.93;;;6.00;;
21999;SDS011;11164;48.818;2.322;2022-11-30T06:34:03;12.60;;;6.10;;
21999;SDS011;11164;48.818;2.322;2022-11-30T06:36:28;12.50;;;6.93;;
21999;SDS011;11164;48.818;2.322;2022-11-30T06:38:55;15.57;;;6.78;;
21999;SDS011;11164;48.818;2.322;2022-11-30T06:41:20;12.48;;;7.15;;
21999;SDS011;11164;48.818;2.322;2022-11-30T06:43:46;15.38;;;6.32;;
21999;SDS011;11164;48.818;2.322;2022-11-30T06:46:12;12.82;;;6.43;;
21999;SDS011;11164;48.818;2.322;2022-11-30T06:48:37;14.05;;;6.22;;
21999;SDS011;11164;48.818;2.322;2022-11-30T06:51:06;14.70;;;7.07;;
21999;SDS011;11164;48.818;2.322;2022-11-30T06:53:33;14.82;;;6.63;;
21999;SDS011;11164;48.818;2.322;2022-11-30T06:56:02;14.57;;;6.65;;
21999;SDS011;11164;48.818;2.322;2022-11-30T06:58:29;14.82;;;7.93;;
21999;SDS011;11164;48.818;2.322;2022-11-30T07:00:54;14.50;;;6.95;;
21999;SDS011;11164;48.818;2.322;2022-11-30T07:03:20;14.38;;;7.32;;
21999;SDS011;11164;48.818;2.322;2022-11-30T07:05:45;13.88;;;7.10;;
21999;SDS011;11164;48.818;2.322;2022-11-30T07:08:11;15.02;;;6.85;;
21999;SDS011;11164;48.818;2.322;2022-11-30T07:10:45;14.15;;;7.75;;
21999;SDS011;11164;48.818;2.322;2022-11-30T07:13:12;15.70;;;8.00;;
21999;SDS011;11164;48.818;2.322;2022-11-30T07:15:39;14.82;;;7.72;;
21999;SDS011;11164;48.818;2.322;2022-11-30T07:18:05;13.60;;;7.70;;
21999;SDS011;11164;48.818;2.322;2022-11-30T07:20:31;14.27;;;7.55;;
21999;SDS011;11164;48.818;2.322;2022-11-30T07:22:57;16.13;;;7.88;;
21999;SDS011;11164;48.818;2.322;2022-11-30T07:25:42;13.82;;;7.60;;
21999;SDS011;11164;48.818;2.322;2022-11-30T07:28:26;15.95;;;7.55;;
21999;SDS011;11164;48.818;2.322;2022-11-30T07:30:51;15.20;;;7.57;;
21999;SDS011;11164;48.818;2.322;2022-11-30T07:33:16;18.73;;;7.78;;
21999;SDS011;11164;48.818;2.322;2022-11-30T07:35:42;15.57;;;7.63;;
21999;SDS011;11164;48.818;2.322;2022-11-30T07:38:07;19.45;;;8.25;;
21999;SDS011;11164;48.818;2.322;2022-11-30T07:40:32;18.27;;;7.78;;
21999;SDS011;11164;48.818;2.322;2022-11-30T07:42:58;18.00;;;8.52;;
21999;SDS011;11164;48.818;2.322;2022-11-30T07:45:23;19.33;;;9.00;;
21999;SDS011;11164;48.818;2.322;2022-11-30T07:47:48;18.13;;;8.88;;
21999;SDS011;11164;48.818;2.322;2022-11-30T07:50:14;19.05;;;8.25;;
21999;SDS011;11164;48.818;2.322;2022-11-30T07:52:39;19.20;;;8.95;;
21999;SDS011;11164;48.818;2.322;2022-11-30T07:55:05;18.50;;;9.07;;
21999;SDS011;11164;48.818;2.322;2022-11-30T07:57:31;19.27;;;9.15;;
21999;SDS011;11164;48.818;2.322;2022-11-30T07:59:56;18.35;;;9.38;;
21999;SDS011;11164;48.818;2.322;2022-11-30T08:02:21;20.27;;;9.68;;
21999;SDS011;11164;48.818;2.322;2022-11-30T08:04:47;18.27;;;9.13;;
21999;SDS011;11164;48.818;2.322;2022-11-30T08:07:12;15.77;;;8.43;;
21999;SDS011;11164;48.818;2.322;2022-11-30T08:09:38;18.42;;;8.85;;
21999;SDS011;11164;48.818;2.322;2022-11-30T08:12:04;18.15;;;8.55;;
21999;SDS011;11164;48.818;2.322;2022-11-30T08:14:29;19.85;;;9.13;;
21999;SDS011;11164;48.818;2.322;2022-11-30T08:16:55;19.77;;;9.25;;
21999;SDS011;11164;48.818;2.322;2022-11-30T08:19:20;17.45;;;9.55;;
21999;SDS011;11164;48.818;2.322;2022-11-30T08:21:45;23.33;;;9.25;;
21999;SDS011;11164;48.818;2.322;2022-11-30T08:24:11;16.35;;;9.00;;
21999;SDS011;11164;48.818;2.322;2022-11-30T08:26:37;16.17;;;8.05;;
21999;SDS011;11164;48.818;2.322;2022-11-30T08:29:03;19.20;;;8.95;;
21999;SDS011;11164;48.818;2.322;2022-11-30T08:31:32;19.95;;;9.52;;
21999;SDS011;11164;48.818;2.322;2022-11-30T08:34:01;16.23;;;8.57;;
21999;SDS011;11164;48.818;2.322;2022-11-30T08:36:31;16.73;;;8.38;;
21999;SDS011;11164;48.818;2.322;2022-11-30T08:38:57;18.48;;;9.07;;
21999;SDS011;11164;48.818;2.322;2022-11-30T08:41:24;19.45;;;8.57;;
21999;SDS011;11164;48.818;2.322;2022-11-30T08:43:49;19.58;;;9.07;;
21999;SDS011;11164;48.818;2.322;2022-11-30T08:46:17;18.52;;;9.65;;
21999;SDS011;11164;48.818;2.322;2022-11-30T08:48:44;18.10;;;9.20;;
21999;SDS011;11164;48.818;2.322;2022-11-30T08:51:10;21.27;;;9.35;;
21999;SDS011;11164;48.818;2.322;2022-11-30T08:53:37;20.17;;;9.93;;
21999;SDS011;11164;48.818;2.322;2022-11-30T08:56:07;22.45;;;9.25;;
21999;SDS011;11164;48.818;2.322;2022-11-30T08:58:36;18.75;;;9.77;;
21999;SDS011;11164;48.818;2.322;2022-11-30T09:01:09;18.98;;;9.32;;
21999;SDS011;11164;48.818;2.322;2022-11-30T09:06:03;20.17;;;9.13;;
21999;SDS011;11164;48.818;2.322;2022-11-30T09:08:32;20.30;;;9.52;;
21999;SDS011;11164;48.818;2.322;2022-11-30T09:11:06;25.13;;;10.80;;
21999;SDS011;11164;48.818;2.322;2022-11-30T09:13:35;18.17;;;9.50;;
21999;SDS011;11164;48.818;2.322;2022-11-30T09:16:01;24.55;;;10.63;;
21999;SDS011;11164;48.818;2.322;2022-11-30T09:18:27;20.83;;;9.95;;
21999;SDS011;11164;48.818;2.322;2022-11-30T09:20:56;20.73;;;9.93;;
21999;SDS011;11164;48.818;2.322;2022-11-30T09:23:23;22.58;;;10.60;;
21999;SDS011;11164;48.818;2.322;2022-11-30T09:25:53;22.75;;;10.35;;
21999;SDS011;11164;48.818;2.322;2022-11-30T09:28:22;20.75;;;10.23;;
21999;SDS011;11164;48.818;2.322;2022-11-30T09:30:48;19.13;;;9.48;;
21999;SDS011;11164;48.818;2.322;2022-11-30T09:33:13;19.83;;;10.57;;
21999;SDS011;11164;48.818;2.322;2022-11-30T09:35:39;20.42;;;10.23;;
21999;SDS011;11164;48.818;2.322;2022-11-30T09:38:04;20.95;;;9.98;;
21999;SDS011;11164;48.818;2.322;2022-11-30T09:40:29;20.90;;;10.13;;
21999;SDS011;11164;48.818;2.322;2022-11-30T09:43:01;20.80;;;10.07;;
21999;SDS011;11164;48.818;2.322;2022-11-30T09:45:36;20.13;;;10.00;;
21999;SDS011;11164;48.818;2.322;2022-11-30T09:50:36;18.48;;;9.77;;
21999;SDS011;11164;48.818;2.322;2022-11-30T09:53:09;21.85;;;9.73;;
21999;SDS011;11164;48.818;2.322;2022-11-30T09:55:40;22.67;;;11.05;;
21999;SDS011;11164;48.818;2.322;2022-11-30T09:58:10;22.23;;;10.05;;
21999;SDS011;11164;48.818;2.322;2022-11-30T10:00:45;22.33;;;10.85;;
21999;SDS011;11164;48.818;2.322;2022-11-30T10:03:11;22.08;;;10.30;;
21999;SDS011;11164;48.818;2.322;2022-11-30T10:05:43;23.38;;;10.70;;
21999;SDS011;11164;48.818;2.322;2022-11-30T10:11:14;19.27;;;10.70;;
21999;SDS011;11164;48.818;2.322;2022-11-30T10:27:16;22.38;;;11.38;;
21999;SDS011;11164;48.818;2.322;2022-11-30T10:29:42;21.75;;;11.07;;
21999;SDS011;11164;48.818;2.322;2022-11-30T10:34:39;24.80;;;10.93;;
21999;SDS011;11164;48.818;2.322;2022-11-30T10:37:08;22.17;;;11.68;;
21999;SDS011;11164;48.818;2.322;2022-11-30T10:39:39;23.33;;;11.65;;
21999;SDS011;11164;48.818;2.322;2022-11-30T10:42:11;21.45;;;11.20;;
21999;SDS011;11164;48.818;2.322;2022-11-30T10:45:02;18.90;;;10.65;;
21999;SDS011;11164;48.818;2.322;2022-11-30T10:47:33;18.40;;;9.90;;
21999;SDS011;11164;48.818;2.322;2022-11-30T10:50:02;19.02;;;9.93;;
21999;SDS011;11164;48.818;2.322;2022-11-30T10:52:30;20.08;;;10.48;;
21999;SDS011;11164;48.818;2.322;2022-11-30T10:55:02;23.23;;;11.13;;
21999;SDS011;11164;48.818;2.322;2022-11-30T10:57:37;20.08;;;11.05;;
21999;SDS011;11164;48.818;2.322;2022-11-30T11:00:03;18.73;;;10.07;;
21999;SDS011;11164;48.818;2.322;2022-11-30T11:02:32;21.90;;;10.75;;
21999;SDS011;11164;48.818;2.322;2022-11-30T11:05:06;24.58;;;10.57;;
21999;SDS011;11164;48.818;2.322;2022-11-30T11:07:59;20.58;;;11.77;;
21999;SDS011;11164;48.818;2.322;2022-11-30T11:10:49;22.08;;;10.70;;
21999;SDS011;11164;48.818;2.322;2022-11-30T11:15:59;22.40;;;12.13;;
21999;SDS011;11164;48.818;2.322;2022-11-30T11:18:30;22.50;;;12.10;;
21999;SDS011;11164;48.818;2.322;2022-11-30T11:21:00;21.13;;;12.52;;
21999;SDS011;11164;48.818;2.322;2022-11-30T11:23:46;24.73;;;12.13;;
21999;SDS011;11164;48.818;2.322;2022-11-30T11:26:19;21.38;;;11.30;;
21999;SDS011;11164;48.818;2.322;2022-11-30T11:28:48;22.65;;;12.73;;
21999;SDS011;11164;48.818;2.322;2022-11-30T11:31:16;25.58;;;13.00;;
21999;SDS011;11164;48.818;2.322;2022-11-30T11:33:55;24.70;;;12.32;;
21999;SDS011;11164;48.818;2.322;2022-11-30T11:36:25;25.70;;;12.45;;
21999;SDS011;11164;48.818;2.322;2022-11-30T11:38:52;23.80;;;12.57;;
21999;SDS011;11164;48.818;2.322;2022-11-30T11:49:21;23.70;;;12.05;;
21999;SDS011;11164;48.818;2.322;2022-11-30T11:52:02;25.65;;;12.85;;
21999;SDS011;11164;48.818;2.322;2022-11-30T11:54:49;24.88;;;12.82;;
21999;SDS011;11164;48.818;2.322;2022-11-30T11:57:20;23.17;;;12.38;;
21999;SDS011;11164;48.818;2.322;2022-11-30T12:04:49;26.73;;;12.68;;
21999;SDS011;11164;48.818;2.322;2022-11-30T12:07:27;24.48;;;12.52;;
21999;SDS011;11164;48.818;2.322;2022-11-30T12:10:20;23.13;;;12.85;;
21999;SDS011;11164;48.818;2.322;2022-11-30T12:12:54;23.67;;;11.02;;
21999;SDS011;11164;48.818;2.322;2022-11-30T12:15:22;25.58;;;12.48;;
21999;SDS011;11164;48.818;2.322;2022-11-30T12:17:58;24.10;;;12.43;;
21999;SDS011;11164;48.818;2.322;2022-11-30T12:31:52;22.10;;;10.95;;
21999;SDS011;11164;48.818;2.322;2022-11-30T12:34:33;22.08;;;11.63;;
21999;SDS011;11164;48.818;2.322;2022-11-30T12:37:15;23.27;;;11.25;;
21999;SDS011;11164;48.818;2.322;2022-11-30T12:39:49;25.30;;;12.25;;
21999;SDS011;11164;48.818;2.322;2022-11-30T12:45:23;20.30;;;12.05;;
21999;SDS011;11164;48.818;2.322;2022-11-30T12:50:49;25.42;;;11.43;;
21999;SDS011;11164;48.818;2.322;2022-11-30T12:56:06;24.73;;;11.98;;
21999;SDS011;11164;48.818;2.322;2022-11-30T12:59:01;24.17;;;11.95;;
21999;SDS011;11164;48.818;2.322;2022-11-30T13:07:05;20.60;;;11.43;;
21999;SDS011;11164;48.818;2.322;2022-11-30T13:09:36;26.98;;;13.18;;
21999;SDS011;11164;48.818;2.322;2022-11-30T13:12:20;25.75;;;12.30;;
21999;SDS011;11164;48.818;2.322;2022-11-30T13:14:47;24.45;;;11.43;;
21999;SDS011;11164;48.818;2.322;2022-11-30T13:17:24;24.20;;;13.20;;
21999;SDS011;11164;48.818;2.322;2022-11-30T13:20:09;26.33;;;12.40;;
21999;SDS011;11164;48.818;2.322;2022-11-30T13:27:55;24.80;;;12.90;;
21999;SDS011;11164;48.818;2.322;2022-11-30T13:36:20;24.65;;;11.23;;
21999;SDS011;11164;48.818;2.322;2022-11-30T13:41:37;25.13;;;11.63;;
21999;SDS011;11164;48.818;2.322;2022-11-30T13:44:04;24.33;;;12.45;;
21999;SDS011;11164;48.818;2.322;2022-11-30T13:46:30;17.83;;;10.43;;
21999;SDS011;11164;48.818;2.322;2022-11-30T13:52:01;27.67;;;12.10;;
21999;SDS011;11164;48.818;2.322;2022-11-30T13:58:09;24.33;;;12.30;;
21999;SDS011;11164;48.818;2.322;2022-11-30T14:02:54;27.77;;;12.90;;
21999;SDS011;11164;48.818;2.322;2022-11-30T14:06:03;22.23;;;11.85;;
21999;SDS011;11164;48.818;2.322;2022-11-30T14:08:31;24.33;;;12.48;;
21999;SDS011;11164;48.818;2.322;2022-11-30T14:13:41;26.85;;;13.52;;
21999;SDS011;11164;48.818;2.322;2022-11-30T14:16:21;24.75;;;13.32;;
21999;SDS011;11164;48.818;2.322;2022-11-30T14:18:51;23.75;;;12.25;;
21999;SDS011;11164;48.818;2.322;2022-11-30T14:24:04;21.17;;;10.98;;
21999;SDS011;11164;48.818;2.322;2022-11-30T14:26:44;19.87;;;10.97;;
21999;SDS011;11164;48.818;2.322;2022-11-30T14:29:14;15.20;;;8.23;;
21999;SDS011;11164;48.818;2.322;2022-11-30T14:31:48;15.68;;;8.43;;
21999;SDS011;11164;48.818;2.322;2022-11-30T14:34:21;16.90;;;9.13;;
21999;SDS011;11164;48.818;2.322;2022-11-30T14:36:51;19.13;;;9.32;;
21999;SDS011;11164;48.818;2.322;2022-11-30T14:41:50;16.58;;;8.88;;
21999;SDS011;11164;48.818;2.322;2022-11-30T14:44:16;18.65;;;9.50;;
21999;SDS011;11164;48.818;2.322;2022-11-30T14:46:41;20.63;;;10.45;;
21999;SDS011;11164;48.818;2.322;2022-11-30T14:51:39;23.98;;;12.18;;
21999;SDS011;11164;48.818;2.322;2022-11-30T14:57:07;24.67;;;13.13;;
21999;SDS011;11164;48.818;2.322;2022-11-30T14:59:49;26.63;;;13.52;;
21999;SDS011;11164;48.818;2.322;2022-11-30T15:02:29;25.73;;;13.23;;
21999;SDS011;11164;48.818;2.322;2022-11-30T15:04:59;29.65;;;13.38;;
21999;SDS011;11164;48.818;2.322;2022-11-30T15:07:25;27.52;;;13.35;;
21999;SDS011;11164;48.818;2.322;2022-11-30T15:09:59;26.33;;;12.73;;
21999;SDS011;11164;48.818;2.322;2022-11-30T15:12:28;23.80;;;11.27;;
21999;SDS011;11164;48.818;2.322;2022-11-30T15:18:14;22.73;;;11.70;;
21999;SDS011;11164;48.818;2.322;2022-11-30T15:20:42;24.70;;;12.18;;
21999;SDS011;11164;48.818;2.322;2022-11-30T15:23:14;24.30;;;11.20;;
21999;SDS011;11164;48.818;2.322;2022-11-30T15:25:44;22.85;;;11.68;;
21999;SDS011;11164;48.818;2.322;2022-11-30T15:28:17;22.88;;;11.43;;
21999;SDS011;11164;48.818;2.322;2022-11-30T15:31:04;21.67;;;11.52;;
21999;SDS011;11164;48.818;2.322;2022-11-30T15:33:36;22.33;;;11.65;;
21999;SDS011;11164;48.818;2.322;2022-11-30T15:36:06;20.60;;;10.38;;
21999;SDS011;11164;48.818;2.322;2022-11-30T15:38:32;27.25;;;11.82;;
21999;SDS011;11164;48.818;2.322;2022-11-30T15:41:01;24.27;;;11.65;;
21999;SDS011;11164;48.818;2.322;2022-11-30T15:43:31;23.02;;;11.57;;
21999;SDS011;11164;48.818;2.322;2022-11-30T15:46:01;23.15;;;11.27;;
21999;SDS011;11164;48.818;2.322;2022-11-30T15:48:28;24.80;;;12.02;;
21999;SDS011;11164;48.818;2.322;2022-11-30T15:50:55;26.48;;;12.98;;
21999;SDS011;11164;48.818;2.322;2022-11-30T15:54:04;23.20;;;12.25;;
21999;SDS011;11164;48.818;2.322;2022-11-30T15:56:24;24.10;;;12.10;;
21999;SDS011;11164;48.818;2.322;2022-11-30T15:58:59;25.20;;;11.95;;
21999;SDS011;11164;48.818;2.322;2022-11-30T16:01:24;27.23;;;13.02;;
21999;SDS011;11164;48.818;2.322;2022-11-30T16:06:19;22.55;;;12.25;;
21999;SDS011;11164;48.818;2.322;2022-11-30T16:08:46;24.30;;;12.57;;
21999;SDS011;11164;48.818;2.322;2022-11-30T16:11:13;25.30;;;12.55;;
21999;SDS011;11164;48.818;2.322;2022-11-30T16:13:39;24.30;;;11.85;;
21999;SDS011;11164;48.818;2.322;2022-11-30T16:16:27;25.95;;;12.73;;
21999;SDS011;11164;48.818;2.322;2022-11-30T16:18:52;25.30;;;12.40;;
21999;SDS011;11164;48.818;2.322;2022-11-30T16:21:18;25.20;;;12.27;;
21999;SDS011;11164;48.818;2.322;2022-11-30T16:23:44;27.65;;;12.75;;
21999;SDS011;11164;48.818;2.322;2022-11-30T16:26:10;28.35;;;13.60;;
21999;SDS011;11164;48.818;2.322;2022-11-30T16:28:37;28.40;;;13.85;;
21999;SDS011;11164;48.818;2.322;2022-11-30T16:31:03;27.08;;;14.40;;
21999;SDS011;11164;48.818;2.322;2022-11-30T16:33:28;29.35;;;13.95;;
21999;SDS011;11164;48.818;2.322;2022-11-30T16:38:25;32.08;;;14.90;;